Raleigh, NC

11:37 AM EST on March 03, 2015 (GMT -0500)
Salem's Eastgate WX | Change Station
CLOSE
Current Station
Personal Weather Station
Location: Raleigh, NC
Elevation: 318 ft
Nearby Weather Stations

Elev 318 ft 35.84 °N, 78.62 °W | Updated 13 seconds ago

Overcast
Overcast
39.6 °F
Feels Like 40 °F
N
1.8
Wind Variable Wind from North
Gusts 3.1 mph

Today
High -- | Low -- °F
--% Chance of Precip.
Yesterday
High -- | Low -- °F
Precip. -- in
6:42 AM 6:11 PM
Waxing Gibbous, 96% visible
Pressure 30.38 in
Visibility 10.0 miles
Clouds Overcast 4000 ft
Windchill 40 °F
Dew Point 22 °F
Humidity 49%
Rainfall 0.00 in
Snow Depth Not available.
UV 2 out of 12
Pollen 5.60 out of 12
Air Quality Not available.
Flu Activity Not available.
METAR KRDU 031551Z 08004KT 10SM OVC040 03/M07 A3037 RMK AO2 SLP286 T00331067

More Conditions Fewer Conditions

Pressure 30.38 in
Visibility 10.0 miles
Clouds Overcast 4000 ft
Windchill 40 °F
Dew Point 22 °F
Humidity 49%
Rainfall 0.00 in
Snow Depth Not available.
UV 2 out of 12
Pollen 5.60 out of 12
Air Quality Not available.
Flu Activity Not available.
METAR KRDU 031551Z 08004KT 10SM OVC040 03/M07 A3037 RMK AO2 SLP286 T00331067

More Conditions Fewer Conditions

10-Day Weather Forecast

Almanac

Astronomy

Mar. 03, 2015 Rise Set
Actual Time
Civil Twilight
Nautical Twilight
Astronomical Twilight
Moon
Length of Visible Light
Length of Day
Tomorrow will be .
, % of the Moon is Illuminated

Today's Extremes

State Highs State Lows

Community

WunderPhotos

Upload Photos

1,802,164 photos uploaded!

WunderBlogs® & News

Nearby

Air Quality

  Air Quality AQ Index Pollutant
Not available.

Snow Depth

Station Depth Elevation

Earthquake Activity

City Distance Mag. Time & Date
Minimum magnitude displayed is 2.5.

Coastal Water Temperatures

Place Temperature

Nearby Weather Stations